Etusivu
METAR-TAF:

METAR-TAF

Lentoasemat :

Gage, Oklahoma, Yhdysvallat

Leveyspiiri: 36-17-48N, Pituuspiiri: 099-46-08W, korkeus merenpinnasta: 677 m

Tämänhetkinen sää

Tämä raportti tehtiin 29 minuuttia sitten, kello 15.33 UTC
Tuuli 13 kn etelästä
Lämpötila 26°C
Kosteus 61%
Ilmanpaine 1026 hPa
Näkyvyys: 16.1 km
Hajanaisia pilviä 2800 ft:n korkeudessa
Hajonneita pilviä 3600 ft:n korkeudessa
Pilvistä 10000 ft:n korkeudessa

METAR: KGAG 201533Z AUTO 19013KT 10SM SCT028 BKN036 OVC100 26/18 A3029 RMK AO2 T02610183

Aika: 11:02 (16:02 UTC)


TAF: puuttuu

Säähavainnot ja -ennusteet yli 4000 lentoasemalta (METAR- ja TAF-raportit).

Käytössä olevat sääasemat on merkitty karttaan keltaisilla ja punaisilla pisteillä.

Aseta hiiri pisteen päälle nähdäksesi sääaseman nimen.

Klikkaa sitten nähdäksesi säähavainnot ja -ennusteet.

Kartan vaihtaminen: klikkaa mustalla rastilla varustettuja vihreitä pisteitä, niin voit zoomata sisään; viivalla varustettua vihreää pistettä, niin voit zoomata ulos tai vihreitä nuolia, niin pääset viereisille kartoille.


METAR-TAF: